AUA7K LOWW-KJFK
Flight info
| Callsign | AUA7K |
|---|---|
| Flight time | N/A |
| Altitude | 38000 |
| Route | BUWUT DCT DITIS DCT OKG DCT VELIS DCT SWALM DCT ARPEG DCT RAVLO Y70 OTBED L60 PENIL M144 BAGSO DCT MCM DCT REVNU DCT RESNO/M081F380 DCT 56N020W 5630N03000W 56N040W 55N050W DCT LOMSI/N0460F380 N668A TAFFY DCT ENE PARCH4 |
| Aircraft | B772/H-SDE2E3FGHIJ5LORVWXY/LB1D1 |
Departure
| Time | 2026-04-26 12:32 |
|---|---|
| Airport | Vienna International Airport (LOWW) |
Arrival
| Time | N/A |
|---|---|
| Airport | John F. Kennedy International Airport (KJFK) |
| Time | Latitude | Longitude | Altitude | Speed | Heading |
|---|---|---|---|---|---|
| 2026-04-26 11:38 | 48.11812 | 16.55980 | 624 ft | 0 kts | 78° |
| 2026-04-26 11:40 | 48.11806 | 16.55971 | 629 ft | 0 kts | 79° |
| 2026-04-26 12:23 | 48.11805 | 16.55965 | 615 ft | 3 kts | 79° |
| 2026-04-26 12:23 | 48.11801 | 16.55935 | 629 ft | 4 kts | 80° |
| 2026-04-26 12:24 | 48.11797 | 16.55895 | 626 ft | 4 kts | 82° |
| 2026-04-26 12:24 | 48.11794 | 16.55855 | 630 ft | 4 kts | 85° |
| 2026-04-26 12:24 | 48.11793 | 16.55815 | 630 ft | 4 kts | 90° |
| 2026-04-26 12:25 | 48.11800 | 16.55743 | 630 ft | 3 kts | 116° |
| 2026-04-26 12:25 | 48.11811 | 16.55708 | 630 ft | 4 kts | 116° |
| 2026-04-26 12:25 | 48.11822 | 16.55675 | 630 ft | 1 kts | 116° |
| 2026-04-26 12:27 | 48.11809 | 16.55713 | 630 ft | 7 kts | 115° |
| 2026-04-26 12:27 | 48.11784 | 16.55780 | 630 ft | 8 kts | 135° |
| 2026-04-26 12:28 | 48.11723 | 16.55781 | 624 ft | 11 kts | 174° |
| 2026-04-26 12:28 | 48.11665 | 16.55873 | 627 ft | 15 kts | 115° |
| 2026-04-26 12:28 | 48.11615 | 16.56028 | 620 ft | 19 kts | 116° |
| 2026-04-26 12:28 | 48.11552 | 16.56221 | 627 ft | 22 kts | 116° |
| 2026-04-26 12:29 | 48.11479 | 16.56446 | 630 ft | 25 kts | 116° |
| 2026-04-26 12:29 | 48.11403 | 16.56681 | 623 ft | 25 kts | 115° |
| 2026-04-26 12:29 | 48.11251 | 16.57150 | 630 ft | 25 kts | 116° |
| 2026-04-26 12:30 | 48.11174 | 16.57384 | 626 ft | 25 kts | 116° |
| 2026-04-26 12:30 | 48.11116 | 16.57561 | 617 ft | 15 kts | 116° |
| 2026-04-26 12:30 | 48.11071 | 16.57648 | 623 ft | 10 kts | 160° |
| 2026-04-26 12:31 | 48.10947 | 16.57579 | 630 ft | 10 kts | 207° |
| 2026-04-26 12:31 | 48.10922 | 16.57523 | 626 ft | 5 kts | 271° |
| 2026-04-26 12:31 | 48.10935 | 16.57474 | 622 ft | 9 kts | 295° |
| 2026-04-26 12:31 | 48.11026 | 16.57191 | 630 ft | 63 kts | 296° |
| 2026-04-26 12:32 | 48.11324 | 16.56273 | 626 ft | 131 kts | 296° |
| 2026-04-26 12:32 | 48.11775 | 16.54825 | 820 ft | 161 kts | 300° |
| 2026-04-26 12:32 | 48.12327 | 16.51577 | 2221 ft | 175 kts | 264° |
| 2026-04-26 12:33 | 48.12012 | 16.49770 | 2709 ft | 192 kts | 260° |
| 2026-04-26 12:33 | 48.11635 | 16.47733 | 3005 ft | 212 kts | 263° |
| 2026-04-26 12:33 | 48.11689 | 16.45507 | 3220 ft | 222 kts | 286° |
| 2026-04-26 12:33 | 48.12001 | 16.43121 | 3500 ft | 242 kts | 283° |
| 2026-04-26 12:34 | 48.12273 | 16.40586 | 4086 ft | 250 kts | 282° |
| 2026-04-26 12:34 | 48.12548 | 16.37992 | 4803 ft | 253 kts | 282° |
| 2026-04-26 12:34 | 48.12821 | 16.35395 | 5609 ft | 252 kts | 282° |
| 2026-04-26 12:34 | 48.13090 | 16.32838 | 6499 ft | 245 kts | 281° |
| 2026-04-26 12:35 | 48.13350 | 16.30350 | 7280 ft | 242 kts | 281° |
| 2026-04-26 12:35 | 48.13610 | 16.27862 | 7760 ft | 249 kts | 281° |
| 2026-04-26 12:35 | 48.13881 | 16.25271 | 8305 ft | 254 kts | 282° |
| 2026-04-26 12:35 | 48.14206 | 16.22677 | 8809 ft | 253 kts | 291° |
| 2026-04-26 12:36 | 48.15161 | 16.20466 | 9195 ft | 257 kts | 316° |
| 2026-04-26 12:36 | 48.16603 | 16.18904 | 9855 ft | 255 kts | 330° |
| 2026-04-26 12:36 | 48.18204 | 16.17700 | 10296 ft | 264 kts | 333° |
| 2026-04-26 12:36 | 48.19918 | 16.16474 | 10407 ft | 282 kts | 333° |
| 2026-04-26 12:37 | 48.21742 | 16.15156 | 10540 ft | 299 kts | 333° |
| 2026-04-26 12:37 | 48.23647 | 16.13764 | 10924 ft | 310 kts | 333° |
| 2026-04-26 12:37 | 48.25606 | 16.12323 | 11470 ft | 317 kts | 333° |
| 2026-04-26 12:37 | 48.27570 | 16.10871 | 12199 ft | 320 kts | 333° |
| 2026-04-26 12:38 | 48.29599 | 16.09367 | 13058 ft | 323 kts | 332° |
| 2026-04-26 12:38 | 48.31601 | 16.07880 | 13839 ft | 327 kts | 332° |
| 2026-04-26 12:38 | 48.33658 | 16.06349 | 14531 ft | 333 kts | 332° |
| 2026-04-26 12:38 | 48.35751 | 16.04791 | 15243 ft | 337 kts | 332° |
| 2026-04-26 12:39 | 48.37865 | 16.03216 | 15972 ft | 340 kts | 333° |
| 2026-04-26 12:39 | 48.39995 | 16.01628 | 16690 ft | 343 kts | 333° |
| 2026-04-26 12:39 | 48.42143 | 16.00024 | 17429 ft | 346 kts | 333° |
| 2026-04-26 12:39 | 48.44306 | 15.98408 | 18155 ft | 349 kts | 333° |
| 2026-04-26 12:40 | 48.46489 | 15.96776 | 18775 ft | 352 kts | 333° |
| 2026-04-26 12:40 | 48.48699 | 15.95121 | 19340 ft | 356 kts | 333° |
| 2026-04-26 12:40 | 48.50925 | 15.93452 | 19894 ft | 359 kts | 333° |
| 2026-04-26 12:40 | 48.53179 | 15.91762 | 20450 ft | 363 kts | 333° |
| 2026-04-26 12:41 | 48.55413 | 15.90067 | 20961 ft | 362 kts | 330° |
| 2026-04-26 12:41 | 48.57449 | 15.87775 | 21290 ft | 370 kts | 313° |
| 2026-04-26 12:41 | 48.58990 | 15.84660 | 21755 ft | 372 kts | 304° |
| 2026-04-26 12:41 | 48.60424 | 15.81392 | 22272 ft | 375 kts | 305° |
| 2026-04-26 12:42 | 48.61879 | 15.78104 | 22803 ft | 378 kts | 304° |
| 2026-04-26 12:42 | 48.63359 | 15.74782 | 23298 ft | 382 kts | 304° |
| 2026-04-26 12:42 | 48.64853 | 15.71442 | 23804 ft | 385 kts | 304° |
| 2026-04-26 12:42 | 48.66363 | 15.68077 | 24270 ft | 387 kts | 304° |
| 2026-04-26 12:43 | 48.67883 | 15.64694 | 24748 ft | 390 kts | 304° |
| 2026-04-26 12:43 | 48.69408 | 15.61296 | 25243 ft | 391 kts | 304° |
| 2026-04-26 12:43 | 48.70892 | 15.57841 | 25704 ft | 393 kts | 301° |
| 2026-04-26 12:43 | 48.72248 | 15.54222 | 26111 ft | 396 kts | 299° |
| 2026-04-26 12:44 | 48.73559 | 15.50532 | 26504 ft | 400 kts | 298° |
| 2026-04-26 12:44 | 48.74880 | 15.46803 | 26925 ft | 403 kts | 298° |
| 2026-04-26 12:44 | 48.76223 | 15.43056 | 27349 ft | 406 kts | 298° |
| 2026-04-26 12:44 | 48.77588 | 15.39294 | 27706 ft | 410 kts | 298° |
| 2026-04-26 12:45 | 48.78957 | 15.35538 | 28084 ft | 413 kts | 298° |
| 2026-04-26 12:45 | 48.80353 | 15.31708 | 28514 ft | 416 kts | 299° |
| 2026-04-26 12:45 | 48.81885 | 15.27973 | 28935 ft | 418 kts | 304° |
| 2026-04-26 12:45 | 48.83609 | 15.24396 | 29337 ft | 421 kts | 306° |
| 2026-04-26 12:46 | 48.85387 | 15.20839 | 29736 ft | 424 kts | 306° |
| 2026-04-26 12:46 | 48.87155 | 15.17218 | 30098 ft | 427 kts | 305° |
| 2026-04-26 12:46 | 48.88901 | 15.13541 | 30439 ft | 430 kts | 304° |
| 2026-04-26 12:46 | 48.90636 | 15.09825 | 30746 ft | 433 kts | 304° |
| 2026-04-26 12:47 | 48.92359 | 15.06045 | 31025 ft | 435 kts | 303° |
| 2026-04-26 12:47 | 48.94055 | 15.02274 | 31305 ft | 438 kts | 303° |
| 2026-04-26 12:47 | 48.95778 | 14.98427 | 31624 ft | 440 kts | 303° |
| 2026-04-26 12:47 | 48.97504 | 14.94567 | 31936 ft | 442 kts | 303° |
| 2026-04-26 12:48 | 48.99241 | 14.90689 | 32232 ft | 444 kts | 303° |
| 2026-04-26 12:48 | 49.00986 | 14.86791 | 32528 ft | 446 kts | 303° |
| 2026-04-26 12:48 | 49.02736 | 14.82884 | 32812 ft | 447 kts | 303° |
| 2026-04-26 12:48 | 49.04491 | 14.78964 | 33116 ft | 448 kts | 303° |
| 2026-04-26 12:49 | 49.06242 | 14.75047 | 33480 ft | 447 kts | 303° |
| 2026-04-26 12:49 | 49.07988 | 14.71137 | 33865 ft | 446 kts | 303° |
| 2026-04-26 12:49 | 49.09733 | 14.67225 | 34173 ft | 446 kts | 302° |
| 2026-04-26 12:49 | 49.11480 | 14.63300 | 34415 ft | 447 kts | 302° |
| 2026-04-26 12:50 | 49.13225 | 14.59374 | 34691 ft | 446 kts | 302° |
| 2026-04-26 12:50 | 49.14968 | 14.55448 | 35000 ft | 446 kts | 302° |
| 2026-04-26 12:50 | 49.16704 | 14.51529 | 35291 ft | 445 kts | 302° |
| 2026-04-26 12:50 | 49.18437 | 14.47614 | 35592 ft | 445 kts | 302° |
| 2026-04-26 12:51 | 49.20144 | 14.43751 | 35874 ft | 444 kts | 302° |
| 2026-04-26 12:51 | 49.21873 | 14.39830 | 36144 ft | 444 kts | 302° |
| 2026-04-26 12:51 | 49.23598 | 14.35914 | 36422 ft | 443 kts | 302° |
| 2026-04-26 12:51 | 49.25319 | 14.32004 | 36684 ft | 443 kts | 302° |
| 2026-04-26 12:52 | 49.27039 | 14.28089 | 36914 ft | 443 kts | 302° |
| 2026-04-26 12:52 | 49.28756 | 14.24173 | 37155 ft | 443 kts | 302° |
| 2026-04-26 12:52 | 49.30473 | 14.20254 | 37418 ft | 442 kts | 302° |
| 2026-04-26 12:52 | 49.32185 | 14.16340 | 37673 ft | 442 kts | 302° |
| 2026-04-26 12:53 | 49.33893 | 14.12429 | 37943 ft | 441 kts | 302° |
| 2026-04-26 12:53 | 49.35598 | 14.08518 | 38160 ft | 441 kts | 302° |
| 2026-04-26 12:53 | 49.37289 | 14.04635 | 38210 ft | 444 kts | 302° |
| 2026-04-26 12:54 | 49.40729 | 13.96714 | 38249 ft | 446 kts | 302° |
| 2026-04-26 12:54 | 49.44150 | 13.88821 | 38246 ft | 440 kts | 302° |
| 2026-04-26 12:55 | 49.47524 | 13.81010 | 38257 ft | 438 kts | 302° |
| 2026-04-26 12:55 | 49.50882 | 13.73211 | 38255 ft | 437 kts | 302° |
| 2026-04-26 12:56 | 49.54235 | 13.65402 | 38271 ft | 437 kts | 302° |
| 2026-04-26 12:56 | 49.57594 | 13.57555 | 38285 ft | 438 kts | 302° |
| 2026-04-26 12:57 | 49.60923 | 13.49755 | 38286 ft | 440 kts | 301° |
| 2026-04-26 12:57 | 49.64287 | 13.41850 | 38310 ft | 441 kts | 301° |
| 2026-04-26 12:58 | 49.69352 | 13.29905 | 38295 ft | 444 kts | 301° |
| 2026-04-26 12:58 | 49.72730 | 13.21908 | 38293 ft | 444 kts | 301° |
| 2026-04-26 12:59 | 49.76104 | 13.13897 | 38290 ft | 444 kts | 301° |
| 2026-04-26 12:59 | 49.79452 | 13.05923 | 38262 ft | 444 kts | 301° |
| 2026-04-26 13:00 | 49.82816 | 12.97888 | 38260 ft | 444 kts | 301° |
| 2026-04-26 13:00 | 49.86168 | 12.89854 | 38257 ft | 443 kts | 301° |
| 2026-04-26 13:01 | 49.89509 | 12.81824 | 38260 ft | 443 kts | 301° |
| 2026-04-26 13:01 | 49.92841 | 12.73791 | 38255 ft | 443 kts | 301° |
| 2026-04-26 13:02 | 49.96171 | 12.65738 | 38268 ft | 443 kts | 301° |
| 2026-04-26 13:02 | 49.99470 | 12.57735 | 38263 ft | 443 kts | 301° |
| 2026-04-26 13:03 | 50.02785 | 12.49673 | 38260 ft | 443 kts | 301° |
| 2026-04-26 13:03 | 50.05989 | 12.41506 | 38261 ft | 441 kts | 295° |
| 2026-04-26 13:04 | 50.08299 | 12.32692 | 38268 ft | 439 kts | 287° |
| 2026-04-26 13:04 | 50.10230 | 12.23646 | 38270 ft | 440 kts | 287° |
| 2026-04-26 13:05 | 50.12172 | 12.14584 | 38281 ft | 441 kts | 287° |
| 2026-04-26 13:05 | 50.14129 | 12.05497 | 38281 ft | 442 kts | 287° |
| 2026-04-26 13:06 | 50.16086 | 11.96398 | 38287 ft | 443 kts | 287° |
| 2026-04-26 13:06 | 50.18027 | 11.87341 | 38295 ft | 443 kts | 287° |
| 2026-04-26 13:07 | 50.19977 | 11.78200 | 38292 ft | 444 kts | 287° |
| 2026-04-26 13:07 | 50.21920 | 11.69050 | 38290 ft | 445 kts | 287° |
| 2026-04-26 13:08 | 50.23862 | 11.59860 | 38289 ft | 445 kts | 287° |
| 2026-04-26 13:08 | 50.25782 | 11.50733 | 38285 ft | 445 kts | 287° |
| 2026-04-26 13:09 | 50.27708 | 11.41539 | 38279 ft | 444 kts | 287° |
| 2026-04-26 13:09 | 50.29621 | 11.32360 | 38274 ft | 444 kts | 287° |
| 2026-04-26 13:10 | 50.31527 | 11.23178 | 38272 ft | 444 kts | 287° |
| 2026-04-26 13:10 | 50.33424 | 11.13992 | 38272 ft | 443 kts | 287° |
| 2026-04-26 13:11 | 50.34995 | 11.06357 | 38267 ft | 443 kts | 287° |
| 2026-04-26 13:11 | 50.36878 | 10.97164 | 38280 ft | 443 kts | 287° |
| 2026-04-26 13:12 | 50.38753 | 10.87966 | 38280 ft | 443 kts | 287° |
| 2026-04-26 13:12 | 50.40623 | 10.78750 | 38278 ft | 444 kts | 287° |
| 2026-04-26 13:13 | 50.42485 | 10.69534 | 38273 ft | 444 kts | 286° |
| 2026-04-26 13:13 | 50.44342 | 10.60295 | 38267 ft | 444 kts | 287° |
| 2026-04-26 13:14 | 50.46195 | 10.51040 | 38273 ft | 444 kts | 286° |
| 2026-04-26 13:14 | 50.48050 | 10.41766 | 38273 ft | 445 kts | 287° |
| 2026-04-26 13:15 | 50.49901 | 10.32557 | 38274 ft | 445 kts | 287° |
| 2026-04-26 13:15 | 50.51759 | 10.23275 | 38267 ft | 445 kts | 287° |
| 2026-04-26 13:16 | 50.53610 | 10.13978 | 38277 ft | 446 kts | 287° |
| 2026-04-26 13:16 | 50.55453 | 10.04672 | 38279 ft | 446 kts | 287° |
| 2026-04-26 13:17 | 50.58210 | 9.90660 | 38275 ft | 447 kts | 286° |
| 2026-04-26 13:18 | 50.60951 | 9.76632 | 38273 ft | 447 kts | 287° |
| 2026-04-26 13:19 | 50.63677 | 9.62579 | 38280 ft | 447 kts | 286° |
| 2026-04-26 13:19 | 50.65474 | 9.53258 | 38277 ft | 447 kts | 286° |
| 2026-04-26 13:20 | 50.67271 | 9.43886 | 38278 ft | 447 kts | 286° |
| 2026-04-26 13:20 | 50.69062 | 9.34508 | 38276 ft | 447 kts | 286° |
| 2026-04-26 13:21 | 50.70846 | 9.25123 | 38287 ft | 446 kts | 287° |
| 2026-04-26 13:21 | 50.73152 | 9.16048 | 38287 ft | 446 kts | 297° |
| 2026-04-26 13:22 | 50.76111 | 9.07430 | 38287 ft | 446 kts | 297° |
| 2026-04-26 13:22 | 50.79058 | 8.98793 | 38285 ft | 446 kts | 297° |
| 2026-04-26 13:23 | 50.81958 | 8.90186 | 38283 ft | 446 kts | 297° |
| 2026-04-26 13:23 | 50.84865 | 8.81502 | 38290 ft | 446 kts | 297° |
| 2026-04-26 13:24 | 50.87765 | 8.72805 | 38291 ft | 447 kts | 297° |
| 2026-04-26 13:24 | 50.90659 | 8.64097 | 38284 ft | 447 kts | 297° |
| 2026-04-26 13:25 | 50.93548 | 8.55377 | 38279 ft | 447 kts | 297° |
| 2026-04-26 13:25 | 50.96431 | 8.46642 | 38278 ft | 447 kts | 297° |
| 2026-04-26 13:26 | 50.99307 | 8.37903 | 38274 ft | 446 kts | 297° |
| 2026-04-26 13:26 | 51.02228 | 8.29194 | 38264 ft | 446 kts | 301° |
| 2026-04-26 13:27 | 51.05583 | 8.20888 | 38281 ft | 446 kts | 302° |
| 2026-04-26 13:27 | 51.08970 | 8.12611 | 38272 ft | 446 kts | 302° |
| 2026-04-26 13:28 | 51.12314 | 8.04370 | 38272 ft | 446 kts | 302° |
| 2026-04-26 13:28 | 51.15666 | 7.96044 | 38269 ft | 446 kts | 302° |
| 2026-04-26 13:29 | 51.19005 | 7.87711 | 38276 ft | 446 kts | 302° |
| 2026-04-26 13:29 | 51.22343 | 7.79355 | 38277 ft | 445 kts | 302° |
| 2026-04-26 13:30 | 51.25664 | 7.71013 | 38280 ft | 445 kts | 302° |
| 2026-04-26 13:30 | 51.28978 | 7.62661 | 38281 ft | 445 kts | 302° |
| 2026-04-26 13:31 | 51.32284 | 7.54306 | 38294 ft | 445 kts | 302° |
| 2026-04-26 13:31 | 51.35583 | 7.45939 | 38298 ft | 445 kts | 302° |
| 2026-04-26 13:32 | 51.38857 | 7.37611 | 38288 ft | 445 kts | 301° |
| 2026-04-26 13:32 | 51.42144 | 7.29219 | 38300 ft | 445 kts | 301° |
| 2026-04-26 13:33 | 51.45426 | 7.20817 | 38295 ft | 445 kts | 301° |
| 2026-04-26 13:33 | 51.48700 | 7.12405 | 38301 ft | 444 kts | 301° |
| 2026-04-26 13:34 | 51.51965 | 7.03989 | 38311 ft | 444 kts | 301° |
| 2026-04-26 13:34 | 51.55226 | 6.95554 | 38313 ft | 444 kts | 301° |
| 2026-04-26 13:35 | 51.58477 | 6.87119 | 38315 ft | 444 kts | 301° |
| 2026-04-26 13:35 | 51.61723 | 6.78670 | 38332 ft | 444 kts | 301° |
| 2026-04-26 13:36 | 51.64963 | 6.70208 | 38317 ft | 443 kts | 301° |
| 2026-04-26 13:36 | 51.68191 | 6.61748 | 38314 ft | 443 kts | 301° |
| 2026-04-26 13:37 | 51.71406 | 6.53296 | 38315 ft | 442 kts | 301° |
| 2026-04-26 13:37 | 51.74585 | 6.44910 | 38318 ft | 441 kts | 301° |
| 2026-04-26 13:38 | 51.77776 | 6.36466 | 38318 ft | 440 kts | 301° |
| 2026-04-26 13:38 | 51.80960 | 6.28010 | 38317 ft | 440 kts | 301° |
| 2026-04-26 13:39 | 51.84133 | 6.19558 | 38319 ft | 439 kts | 301° |
| 2026-04-26 13:39 | 51.87288 | 6.11124 | 38313 ft | 438 kts | 301° |
| 2026-04-26 13:40 | 51.90436 | 6.02682 | 38319 ft | 438 kts | 301° |
| 2026-04-26 13:40 | 51.93577 | 5.94231 | 38312 ft | 437 kts | 301° |
| 2026-04-26 13:41 | 51.96706 | 5.85783 | 38303 ft | 437 kts | 301° |
| 2026-04-26 13:41 | 51.99826 | 5.77332 | 38315 ft | 436 kts | 301° |
| 2026-04-26 13:42 | 52.02900 | 5.68977 | 38308 ft | 436 kts | 301° |
| 2026-04-26 13:42 | 52.06001 | 5.60522 | 38313 ft | 435 kts | 301° |
| 2026-04-26 13:43 | 52.09096 | 5.52054 | 38312 ft | 435 kts | 301° |
| 2026-04-26 13:43 | 52.12178 | 5.43593 | 38324 ft | 435 kts | 301° |
| 2026-04-26 13:44 | 52.15256 | 5.35116 | 38322 ft | 435 kts | 301° |
| 2026-04-26 13:44 | 52.18304 | 5.26693 | 38334 ft | 435 kts | 300° |
| 2026-04-26 13:45 | 52.21369 | 5.18196 | 38324 ft | 434 kts | 300° |
| 2026-04-26 13:45 | 52.24425 | 5.09693 | 38322 ft | 434 kts | 300° |
| 2026-04-26 13:46 | 52.27474 | 5.01182 | 38322 ft | 434 kts | 300° |
| 2026-04-26 13:46 | 52.30515 | 4.92664 | 38305 ft | 434 kts | 300° |
| 2026-04-26 13:47 | 52.33547 | 4.84141 | 38316 ft | 433 kts | 300° |
| 2026-04-26 13:47 | 52.36552 | 4.75669 | 38315 ft | 433 kts | 300° |
| 2026-04-26 13:48 | 52.39571 | 4.67125 | 38339 ft | 433 kts | 300° |
| 2026-04-26 13:48 | 52.42584 | 4.58569 | 38340 ft | 433 kts | 300° |
| 2026-04-26 13:49 | 52.45590 | 4.50006 | 38348 ft | 433 kts | 300° |
| 2026-04-26 13:49 | 52.48590 | 4.41430 | 38340 ft | 433 kts | 300° |
| 2026-04-26 13:50 | 52.51584 | 4.32839 | 38351 ft | 433 kts | 300° |
| 2026-04-26 13:50 | 52.54571 | 4.24242 | 38347 ft | 433 kts | 300° |
| 2026-04-26 13:51 | 52.57550 | 4.15637 | 38345 ft | 433 kts | 300° |
| 2026-04-26 13:51 | 52.60503 | 4.07076 | 38351 ft | 433 kts | 300° |
| 2026-04-26 13:52 | 52.63471 | 3.98446 | 38346 ft | 433 kts | 299° |
| 2026-04-26 13:52 | 52.66435 | 3.89795 | 38356 ft | 433 kts | 299° |
| 2026-04-26 13:53 | 52.69390 | 3.81140 | 38367 ft | 433 kts | 299° |
| 2026-04-26 13:53 | 52.72340 | 3.72468 | 38368 ft | 434 kts | 299° |
| 2026-04-26 13:54 | 52.75286 | 3.63781 | 38360 ft | 434 kts | 299° |
| 2026-04-26 13:54 | 52.78229 | 3.55071 | 38364 ft | 434 kts | 299° |
| 2026-04-26 13:55 | 52.82129 | 3.43478 | 38365 ft | 433 kts | 298° |
| 2026-04-26 13:56 | 52.86990 | 3.28956 | 38358 ft | 434 kts | 298° |
| 2026-04-26 13:56 | 52.89897 | 3.20214 | 38362 ft | 433 kts | 297° |
| 2026-04-26 13:57 | 52.92163 | 3.10970 | 38360 ft | 433 kts | 287° |
| 2026-04-26 13:57 | 52.93543 | 3.01237 | 38352 ft | 434 kts | 282° |
| 2026-04-26 13:58 | 52.94582 | 2.93099 | 38362 ft | 434 kts | 282° |
| 2026-04-26 13:58 | 52.95841 | 2.83303 | 38363 ft | 434 kts | 283° |
| 2026-04-26 13:59 | 52.97108 | 2.73497 | 38363 ft | 435 kts | 283° |
| 2026-04-26 13:59 | 52.98374 | 2.63677 | 38373 ft | 435 kts | 283° |
| 2026-04-26 14:00 | 53.00876 | 2.44065 | 38363 ft | 435 kts | 282° |
| 2026-04-26 14:01 | 53.02117 | 2.34233 | 38365 ft | 435 kts | 282° |
| 2026-04-26 14:01 | 53.03349 | 2.24398 | 38360 ft | 435 kts | 282° |
| 2026-04-26 14:02 | 53.04574 | 2.14566 | 38361 ft | 434 kts | 282° |
| 2026-04-26 14:02 | 53.05789 | 2.04730 | 38361 ft | 434 kts | 282° |
| 2026-04-26 14:03 | 53.06998 | 1.94887 | 38356 ft | 434 kts | 281° |
| 2026-04-26 14:03 | 53.08198 | 1.85050 | 38359 ft | 434 kts | 281° |
| 2026-04-26 14:04 | 53.09391 | 1.75205 | 38353 ft | 434 kts | 281° |
| 2026-04-26 14:04 | 53.10574 | 1.65362 | 38353 ft | 434 kts | 281° |
| 2026-04-26 14:05 | 53.11754 | 1.55482 | 38355 ft | 437 kts | 281° |
| 2026-04-26 14:05 | 53.12933 | 1.45532 | 38355 ft | 439 kts | 281° |
| 2026-04-26 14:06 | 53.14100 | 1.35608 | 38346 ft | 440 kts | 281° |
| 2026-04-26 14:06 | 53.15266 | 1.25609 | 38346 ft | 439 kts | 281° |
| 2026-04-26 14:07 | 53.16421 | 1.15636 | 38342 ft | 437 kts | 281° |
| 2026-04-26 14:07 | 53.17563 | 1.05698 | 38344 ft | 436 kts | 281° |
| 2026-04-26 14:08 | 53.18692 | 0.95793 | 38343 ft | 434 kts | 280° |
| 2026-04-26 14:08 | 53.19808 | 0.85926 | 38338 ft | 432 kts | 280° |
| 2026-04-26 14:09 | 53.20913 | 0.76084 | 38331 ft | 431 kts | 280° |
| 2026-04-26 14:09 | 53.22008 | 0.66266 | 38330 ft | 430 kts | 280° |
| 2026-04-26 14:10 | 53.23094 | 0.56439 | 38330 ft | 430 kts | 280° |
| 2026-04-26 14:10 | 53.24175 | 0.46602 | 38326 ft | 431 kts | 280° |
| 2026-04-26 14:11 | 53.25765 | 0.31882 | 38335 ft | 432 kts | 279° |
| 2026-04-26 14:11 | 53.26817 | 0.21997 | 38327 ft | 433 kts | 279° |
| 2026-04-26 14:12 | 53.27867 | 0.12086 | 38317 ft | 433 kts | 279° |
| 2026-04-26 14:12 | 53.28908 | 0.02172 | 38318 ft | 433 kts | 279° |
| 2026-04-26 14:13 | 53.30452 | -0.12735 | 38316 ft | 434 kts | 279° |
| 2026-04-26 14:14 | 53.31465 | -0.22613 | 38314 ft | 433 kts | 279° |
| 2026-04-26 14:14 | 53.32478 | -0.32551 | 38297 ft | 433 kts | 279° |
| 2026-04-26 14:15 | 53.33481 | -0.42492 | 38295 ft | 433 kts | 279° |
| 2026-04-26 14:15 | 53.34481 | -0.52416 | 38294 ft | 433 kts | 279° |
| 2026-04-26 14:16 | 53.35477 | -0.62348 | 38293 ft | 432 kts | 279° |
| 2026-04-26 14:16 | 53.36455 | -0.72279 | 38292 ft | 432 kts | 278° |
| 2026-04-26 14:17 | 53.37413 | -0.82216 | 38294 ft | 432 kts | 278° |
| 2026-04-26 14:17 | 53.38367 | -0.92153 | 38291 ft | 432 kts | 278° |
| 2026-04-26 14:18 | 53.39340 | -1.02024 | 38285 ft | 432 kts | 279° |
| 2026-04-26 14:18 | 53.40307 | -1.11964 | 38289 ft | 432 kts | 278° |
| 2026-04-26 14:19 | 53.41199 | -1.21380 | 38285 ft | 432 kts | 278° |
| 2026-04-26 14:19 | 53.42112 | -1.31337 | 38280 ft | 432 kts | 278° |
| 2026-04-26 14:20 | 53.43044 | -1.41284 | 38279 ft | 432 kts | 278° |
| 2026-04-26 14:20 | 53.43974 | -1.51238 | 38282 ft | 432 kts | 278° |
| 2026-04-26 14:21 | 53.44885 | -1.61184 | 38277 ft | 431 kts | 278° |
| 2026-04-26 14:21 | 53.45786 | -1.71126 | 38279 ft | 431 kts | 278° |
| 2026-04-26 14:22 | 53.46675 | -1.81010 | 38274 ft | 431 kts | 277° |
| 2026-04-26 14:22 | 53.47549 | -1.90980 | 38279 ft | 431 kts | 277° |
| 2026-04-26 14:23 | 53.48410 | -2.00955 | 38277 ft | 431 kts | 277° |
| 2026-04-26 14:23 | 53.49267 | -2.10933 | 38276 ft | 432 kts | 277° |
| 2026-04-26 14:24 | 53.50117 | -2.20928 | 38278 ft | 432 kts | 277° |
| 2026-04-26 14:24 | 53.50963 | -2.30928 | 38272 ft | 433 kts | 277° |
| 2026-04-26 14:25 | 53.51804 | -2.40952 | 38276 ft | 433 kts | 277° |
| 2026-04-26 14:25 | 53.52636 | -2.50969 | 38272 ft | 433 kts | 277° |
| 2026-04-26 14:26 | 53.53461 | -2.60999 | 38274 ft | 433 kts | 276° |
| 2026-04-26 14:26 | 53.54277 | -2.71034 | 38273 ft | 433 kts | 276° |
| 2026-04-26 14:27 | 53.55079 | -2.81009 | 38277 ft | 433 kts | 276° |
| 2026-04-26 14:27 | 53.55878 | -2.91049 | 38270 ft | 433 kts | 276° |
| 2026-04-26 14:28 | 53.56669 | -3.01092 | 38269 ft | 433 kts | 276° |
| 2026-04-26 14:28 | 53.57451 | -3.11133 | 38274 ft | 433 kts | 276° |
| 2026-04-26 14:29 | 53.58225 | -3.21185 | 38271 ft | 433 kts | 276° |
| 2026-04-26 14:29 | 53.58992 | -3.31261 | 38270 ft | 433 kts | 276° |
| 2026-04-26 14:30 | 53.59749 | -3.41324 | 38272 ft | 433 kts | 275° |
| 2026-04-26 14:30 | 53.60498 | -3.51387 | 38275 ft | 433 kts | 275° |
| 2026-04-26 14:31 | 53.61241 | -3.61464 | 38282 ft | 433 kts | 275° |
| 2026-04-26 14:31 | 53.61905 | -3.71556 | 38278 ft | 433 kts | 272° |
| 2026-04-26 14:32 | 53.62282 | -3.81685 | 38275 ft | 434 kts | 272° |
| 2026-04-26 14:32 | 53.62681 | -3.91762 | 38277 ft | 434 kts | 272° |
| 2026-04-26 14:33 | 53.63098 | -4.01918 | 38280 ft | 435 kts | 272° |
| 2026-04-26 14:33 | 53.63492 | -4.12079 | 38277 ft | 435 kts | 272° |
| 2026-04-26 14:34 | 53.63875 | -4.22271 | 38286 ft | 435 kts | 272° |
| 2026-04-26 14:34 | 53.64250 | -4.32457 | 38278 ft | 435 kts | 272° |
| 2026-04-26 14:35 | 53.64612 | -4.42650 | 38276 ft | 435 kts | 271° |
| 2026-04-26 14:35 | 53.64962 | -4.52774 | 38271 ft | 435 kts | 271° |
| 2026-04-26 14:36 | 53.65309 | -4.62966 | 38280 ft | 435 kts | 271° |
| 2026-04-26 14:36 | 53.65648 | -4.73146 | 38276 ft | 435 kts | 271° |
| 2026-04-26 14:37 | 53.65979 | -4.83327 | 38283 ft | 435 kts | 271° |
| 2026-04-26 14:37 | 53.66313 | -4.93511 | 38275 ft | 435 kts | 271° |
| 2026-04-26 14:38 | 53.66650 | -5.03705 | 38270 ft | 435 kts | 271° |
| 2026-04-26 14:38 | 53.66973 | -5.13826 | 38265 ft | 435 kts | 271° |
| 2026-04-26 14:39 | 53.67277 | -5.24028 | 38272 ft | 435 kts | 271° |
| 2026-04-26 14:39 | 53.67566 | -5.34246 | 38266 ft | 436 kts | 271° |
| 2026-04-26 14:40 | 53.67852 | -5.44453 | 38269 ft | 436 kts | 271° |
| 2026-04-26 14:40 | 53.68730 | -5.54596 | 38271 ft | 439 kts | 282° |
| 2026-04-26 14:41 | 53.70419 | -5.64505 | 38260 ft | 440 kts | 283° |
| 2026-04-26 14:41 | 53.72125 | -5.74415 | 38262 ft | 440 kts | 283° |
| 2026-04-26 14:42 | 53.73808 | -5.84351 | 38262 ft | 440 kts | 283° |
| 2026-04-26 14:42 | 53.75473 | -5.94302 | 38261 ft | 440 kts | 283° |
| 2026-04-26 14:43 | 53.77119 | -6.04213 | 38264 ft | 440 kts | 283° |
| 2026-04-26 14:43 | 53.78769 | -6.14198 | 38259 ft | 440 kts | 283° |
| 2026-04-26 14:44 | 53.80356 | -6.24184 | 38260 ft | 439 kts | 282° |
| 2026-04-26 14:44 | 53.82000 | -6.34148 | 38254 ft | 440 kts | 283° |
| 2026-04-26 14:45 | 53.83652 | -6.44136 | 38260 ft | 441 kts | 282° |
| 2026-04-26 14:45 | 53.85006 | -6.52472 | 38252 ft | 441 kts | 282° |
| 2026-04-26 14:46 | 53.86880 | -6.64148 | 38248 ft | 442 kts | 282° |
| 2026-04-26 14:46 | 53.88484 | -6.74206 | 38245 ft | 442 kts | 282° |
| 2026-04-26 14:47 | 53.89823 | -6.82637 | 38250 ft | 442 kts | 282° |
| 2026-04-26 14:47 | 53.91418 | -6.92659 | 38242 ft | 444 kts | 283° |
| 2026-04-26 14:48 | 53.93266 | -7.02671 | 38251 ft | 445 kts | 285° |
| 2026-04-26 14:48 | 53.95201 | -7.12682 | 38247 ft | 446 kts | 285° |
| 2026-04-26 14:49 | 53.97105 | -7.22721 | 38242 ft | 447 kts | 284° |
| 2026-04-26 14:49 | 53.98980 | -7.32796 | 38243 ft | 447 kts | 284° |
| 2026-04-26 14:50 | 54.00838 | -7.42886 | 38247 ft | 447 kts | 284° |
| 2026-04-26 14:50 | 54.02687 | -7.52980 | 38254 ft | 446 kts | 284° |
| 2026-04-26 14:51 | 54.04511 | -7.62990 | 38242 ft | 445 kts | 284° |
| 2026-04-26 14:51 | 54.06346 | -7.73118 | 38244 ft | 444 kts | 284° |
| 2026-04-26 14:52 | 54.08145 | -7.83095 | 38243 ft | 443 kts | 284° |
| 2026-04-26 14:52 | 54.09945 | -7.93136 | 38242 ft | 443 kts | 284° |
| 2026-04-26 14:53 | 54.11736 | -8.03185 | 38259 ft | 443 kts | 284° |
| 2026-04-26 14:53 | 54.13518 | -8.13238 | 38251 ft | 443 kts | 284° |
| 2026-04-26 14:54 | 54.15292 | -8.23298 | 38255 ft | 443 kts | 284° |
| 2026-04-26 14:54 | 54.17058 | -8.33373 | 38259 ft | 444 kts | 284° |
| 2026-04-26 14:55 | 54.18820 | -8.43479 | 38258 ft | 444 kts | 284° |
| 2026-04-26 14:55 | 54.20564 | -8.53541 | 38312 ft | 445 kts | 284° |
| 2026-04-26 14:56 | 54.22312 | -8.63685 | 38290 ft | 445 kts | 284° |
| 2026-04-26 14:56 | 54.24051 | -8.73827 | 38294 ft | 444 kts | 284° |
| 2026-04-26 14:57 | 54.25776 | -8.83952 | 38292 ft | 443 kts | 284° |
| 2026-04-26 14:57 | 54.27491 | -8.94071 | 38273 ft | 442 kts | 284° |
| 2026-04-26 14:58 | 54.29195 | -9.04188 | 38268 ft | 442 kts | 284° |
| 2026-04-26 14:58 | 54.30890 | -9.14311 | 38265 ft | 441 kts | 284° |
| 2026-04-26 14:59 | 54.32573 | -9.24421 | 38262 ft | 441 kts | 284° |
| 2026-04-26 14:59 | 54.34248 | -9.34540 | 38262 ft | 441 kts | 284° |
| 2026-04-26 15:00 | 54.35914 | -9.44664 | 38263 ft | 441 kts | 284° |
| 2026-04-26 15:00 | 54.37573 | -9.54808 | 38285 ft | 442 kts | 284° |
| 2026-04-26 15:01 | 54.39226 | -9.64967 | 38280 ft | 442 kts | 284° |
| 2026-04-26 15:01 | 54.40860 | -9.75077 | 38268 ft | 442 kts | 284° |
| 2026-04-26 15:02 | 54.42496 | -9.85256 | 38277 ft | 441 kts | 284° |
| 2026-04-26 15:02 | 54.44120 | -9.95421 | 38277 ft | 441 kts | 284° |
| 2026-04-26 15:03 | 54.45735 | -10.05586 | 38273 ft | 441 kts | 284° |
| 2026-04-26 15:03 | 54.47305 | -10.15752 | 38266 ft | 440 kts | 282° |
| 2026-04-26 15:04 | 54.48642 | -10.26013 | 38272 ft | 439 kts | 281° |
| 2026-04-26 15:04 | 54.49918 | -10.36286 | 38278 ft | 439 kts | 281° |
| 2026-04-26 15:05 | 54.51211 | -10.46568 | 38273 ft | 439 kts | 281° |
| 2026-04-26 15:05 | 54.52511 | -10.56832 | 38273 ft | 439 kts | 281° |
| 2026-04-26 15:06 | 54.53801 | -10.67038 | 38289 ft | 439 kts | 281° |
| 2026-04-26 15:06 | 54.55091 | -10.77315 | 38270 ft | 439 kts | 281° |
| 2026-04-26 15:07 | 54.57010 | -10.92761 | 38265 ft | 439 kts | 281° |
| 2026-04-26 15:07 | 54.58279 | -11.03062 | 38268 ft | 439 kts | 281° |
| 2026-04-26 15:08 | 54.59539 | -11.13378 | 38268 ft | 439 kts | 281° |
| 2026-04-26 15:08 | 54.60783 | -11.23638 | 38267 ft | 439 kts | 281° |
| 2026-04-26 15:09 | 54.62026 | -11.33968 | 38266 ft | 439 kts | 281° |
| 2026-04-26 15:09 | 54.63260 | -11.44297 | 38263 ft | 439 kts | 281° |
| 2026-04-26 15:10 | 54.64279 | -11.52894 | 38260 ft | 439 kts | 281° |
| 2026-04-26 15:10 | 54.65702 | -11.64991 | 38264 ft | 439 kts | 281° |
| 2026-04-26 15:11 | 54.66909 | -11.75334 | 38260 ft | 439 kts | 281° |
| 2026-04-26 15:11 | 54.68099 | -11.85619 | 38263 ft | 439 kts | 281° |
| 2026-04-26 15:12 | 54.69295 | -11.96045 | 38260 ft | 439 kts | 281° |
| 2026-04-26 15:12 | 54.70466 | -12.06329 | 38259 ft | 438 kts | 281° |
| 2026-04-26 15:13 | 54.71633 | -12.16650 | 38257 ft | 436 kts | 281° |
| 2026-04-26 15:13 | 54.72786 | -12.26945 | 38257 ft | 435 kts | 281° |
| 2026-04-26 15:14 | 54.73927 | -12.37208 | 38255 ft | 434 kts | 281° |
| 2026-04-26 15:14 | 54.75057 | -12.47460 | 38258 ft | 433 kts | 281° |
| 2026-04-26 15:15 | 54.76178 | -12.57711 | 38257 ft | 433 kts | 281° |
| 2026-04-26 15:15 | 54.77283 | -12.67903 | 38257 ft | 433 kts | 281° |
| 2026-04-26 15:16 | 54.78386 | -12.78162 | 38259 ft | 433 kts | 281° |
| 2026-04-26 15:16 | 54.79482 | -12.88435 | 38259 ft | 434 kts | 280° |
| 2026-04-26 15:17 | 54.80394 | -12.97057 | 38254 ft | 434 kts | 280° |
| 2026-04-26 15:17 | 54.81650 | -13.09031 | 38263 ft | 435 kts | 280° |
| 2026-04-26 15:18 | 54.82723 | -13.19357 | 38258 ft | 435 kts | 280° |
| 2026-04-26 15:18 | 54.83787 | -13.29687 | 38257 ft | 434 kts | 280° |
| 2026-04-26 15:19 | 54.84842 | -13.40008 | 38255 ft | 434 kts | 280° |
| 2026-04-26 15:19 | 54.85878 | -13.50252 | 38255 ft | 433 kts | 280° |
| 2026-04-26 15:20 | 54.86912 | -13.60553 | 38252 ft | 433 kts | 280° |
| 2026-04-26 15:20 | 54.87936 | -13.70851 | 38238 ft | 433 kts | 280° |
| 2026-04-26 15:21 | 54.88951 | -13.81156 | 38258 ft | 432 kts | 280° |
| 2026-04-26 15:21 | 54.89957 | -13.91456 | 38253 ft | 432 kts | 280° |
| 2026-04-26 15:22 | 54.90953 | -14.01754 | 38254 ft | 432 kts | 280° |
| 2026-04-26 15:22 | 54.91941 | -14.12065 | 38257 ft | 432 kts | 280° |
| 2026-04-26 15:23 | 54.92919 | -14.22363 | 38254 ft | 432 kts | 279° |
| 2026-04-26 15:23 | 54.93890 | -14.32680 | 38261 ft | 432 kts | 280° |
| 2026-04-26 15:24 | 54.94845 | -14.42927 | 38246 ft | 432 kts | 279° |
| 2026-04-26 15:24 | 54.95797 | -14.53243 | 38252 ft | 432 kts | 279° |
| 2026-04-26 15:25 | 54.96588 | -14.61885 | 38249 ft | 431 kts | 279° |
| 2026-04-26 15:25 | 54.97675 | -14.73878 | 38249 ft | 431 kts | 279° |
| 2026-04-26 15:26 | 54.98600 | -14.84187 | 38246 ft | 431 kts | 279° |
| 2026-04-26 15:26 | 54.99511 | -14.94424 | 38244 ft | 430 kts | 280° |
| 2026-04-26 15:27 | 55.00962 | -15.04503 | 38244 ft | 429 kts | 290° |
| 2026-04-26 15:27 | 55.03147 | -15.14163 | 38242 ft | 429 kts | 291° |
| 2026-04-26 15:28 | 55.05337 | -15.23840 | 38246 ft | 428 kts | 291° |
| 2026-04-26 15:28 | 55.07504 | -15.33525 | 38245 ft | 429 kts | 291° |
| 2026-04-26 15:29 | 55.09659 | -15.43229 | 38244 ft | 429 kts | 291° |
| 2026-04-26 15:30 | 55.13945 | -15.62690 | 38238 ft | 429 kts | 291° |
| 2026-04-26 15:30 | 55.16075 | -15.72429 | 38242 ft | 429 kts | 291° |
| 2026-04-26 15:31 | 55.19253 | -15.87043 | 38243 ft | 428 kts | 291° |
| 2026-04-26 15:32 | 55.21704 | -15.98391 | 38240 ft | 428 kts | 290° |
| 2026-04-26 15:32 | 55.24495 | -16.11384 | 38252 ft | 428 kts | 290° |
| 2026-04-26 15:33 | 55.26582 | -16.21156 | 38223 ft | 427 kts | 290° |
| 2026-04-26 15:33 | 55.28656 | -16.30912 | 38228 ft | 427 kts | 290° |
| 2026-04-26 15:34 | 55.30720 | -16.40669 | 38238 ft | 426 kts | 290° |
| 2026-04-26 15:34 | 55.32429 | -16.48783 | 38239 ft | 426 kts | 290° |
| 2026-04-26 15:35 | 55.34476 | -16.58545 | 38236 ft | 425 kts | 290° |
| 2026-04-26 15:35 | 55.36516 | -16.68322 | 38234 ft | 425 kts | 290° |
| 2026-04-26 15:36 | 55.38544 | -16.78085 | 38238 ft | 425 kts | 290° |
| 2026-04-26 15:36 | 55.40566 | -16.87868 | 38237 ft | 425 kts | 290° |
| 2026-04-26 15:37 | 55.42567 | -16.97599 | 38227 ft | 425 kts | 290° |
| 2026-04-26 15:37 | 55.44574 | -17.07407 | 38218 ft | 425 kts | 290° |
| 2026-04-26 15:38 | 55.46570 | -17.17209 | 38225 ft | 425 kts | 290° |
| 2026-04-26 15:38 | 55.48558 | -17.27020 | 38234 ft | 425 kts | 290° |
| 2026-04-26 15:39 | 55.50540 | -17.36849 | 38220 ft | 425 kts | 290° |
| 2026-04-26 15:39 | 55.52178 | -17.45011 | 38216 ft | 425 kts | 289° |
| 2026-04-26 15:40 | 55.54475 | -17.56514 | 38217 ft | 425 kts | 289° |
| 2026-04-26 15:40 | 55.56432 | -17.66365 | 38232 ft | 425 kts | 289° |
| 2026-04-26 15:41 | 55.58382 | -17.76231 | 38216 ft | 425 kts | 289° |
| 2026-04-26 15:41 | 55.60309 | -17.86033 | 38216 ft | 424 kts | 289° |
| 2026-04-26 15:42 | 55.62238 | -17.95891 | 38218 ft | 424 kts | 289° |
| 2026-04-26 15:42 | 55.64158 | -18.05757 | 38216 ft | 424 kts | 289° |
| 2026-04-26 15:43 | 55.66070 | -18.15628 | 38214 ft | 424 kts | 289° |
| 2026-04-26 15:44 | 55.68919 | -18.30436 | 38213 ft | 423 kts | 289° |
| 2026-04-26 15:44 | 55.71747 | -18.45247 | 38235 ft | 423 kts | 289° |
| 2026-04-26 15:45 | 55.74560 | -18.60095 | 38212 ft | 423 kts | 288° |
| 2026-04-26 15:46 | 55.77352 | -18.74944 | 38207 ft | 423 kts | 288° |